Time;durP1;ratioP1;P1;durP2;ratioP2;P2;SDS_P1;SDS_P2;PMS_P1;PMS_P2;Temp;Humidity;BMP_temperature;BMP_pressure;BME280_temperature;BME280_humidity;BME280_pressure;Samples;Min_cycle;Max_cycle;Signal;HPM_P1;HPM_P2
2024/02/26 00:00:31;;;;;;;6.95;1.95;;;;;;;6.13;100.00;97490.44;5058760;28;20370;-70
2024/02/26 00:02:57;;;;;;;4.70;1.70;;;;;;;6.14;100.00;97488.47;5058658;28;20037;-71
2024/02/26 00:05:22;;;;;;;6.30;1.70;;;;;;;6.14;100.00;97494.00;5075606;28;20397;-70
2024/02/26 00:07:48;;;;;;;6.95;2.25;;;;;;;6.10;100.00;97493.03;5048252;28;20036;-70
2024/02/26 00:10:14;;;;;;;7.13;2.05;;;;;;;6.10;100.00;97499.38;5041917;28;20235;-70
2024/02/26 00:12:40;;;;;;;5.72;1.95;;;;;;;6.11;100.00;97500.97;5058885;28;20029;-70
2024/02/26 00:15:06;;;;;;;5.32;1.90;;;;;;;6.11;100.00;97502.94;5058631;28;20507;-71
2024/02/26 00:17:32;;;;;;;4.03;1.90;;;;;;;6.09;100.00;97506.03;5075443;28;20024;-71
2024/02/26 00:19:57;;;;;;;5.05;1.88;;;;;;;6.09;100.00;97507.97;5075117;28;20381;-71
2024/02/26 00:22:23;;;;;;;6.03;1.77;;;;;;;6.11;100.00;97502.94;5072502;28;20029;-70
2024/02/26 00:24:48;;;;;;;5.25;1.73;;;;;;;6.13;100.00;97503.38;5075613;28;20040;-71
2024/02/26 00:27:13;;;;;;;5.35;1.40;;;;;;;6.12;100.00;97501.78;5075383;28;20031;-70
2024/02/26 00:29:39;;;;;;;8.02;1.92;;;;;;;6.10;100.00;97504.06;5041273;28;20028;-70
2024/02/26 00:32:05;;;;;;;6.25;2.00;;;;;;;6.12;100.00;97510.06;5057425;28;20508;-71
2024/02/26 00:34:30;;;;;;;4.10;1.58;;;;;;;6.13;100.00;97508.91;5058250;28;20064;-70
2024/02/26 00:36:56;;;;;;;4.65;1.88;;;;;;;6.12;100.00;97510.84;5072688;28;20773;-70
2024/02/26 00:39:21;;;;;;;7.25;2.00;;;;;;;6.13;100.00;97511.66;5075218;28;20039;-70
2024/02/26 00:41:47;;;;;;;5.15;1.90;;;;;;;6.14;100.00;97513.28;5058408;28;20035;-70
2024/02/26 00:44:12;;;;;;;5.65;1.80;;;;;;;6.14;100.00;97516.84;5067172;28;20473;-70
2024/02/26 00:46:38;;;;;;;2.53;1.65;;;;;;;6.17;100.00;97509.84;5078687;28;20076;-71
2024/02/26 00:49:03;;;;;;;2.50;1.65;;;;;;;6.16;100.00;97516.50;5061623;28;20033;-70
2024/02/26 00:51:29;;;;;;;7.40;1.92;;;;;;;6.16;100.00;97517.31;5044735;28;20029;-71
2024/02/26 00:53:55;;;;;;;7.05;1.70;;;;;;;6.18;100.00;97511.44;5064536;28;20029;-71
2024/02/26 00:56:21;;;;;;;3.70;1.85;;;;;;;6.20;100.00;97517.44;5044642;28;20028;-70
2024/02/26 00:58:46;;;;;;;6.32;1.80;;;;;;;6.19;100.00;97516.63;5061867;28;20040;-70
2024/02/26 01:01:12;;;;;;;4.70;1.50;;;;;;;6.19;100.00;97515.84;5031783;28;20099;-70
2024/02/26 01:03:37;;;;;;;5.28;1.63;;;;;;;6.19;100.00;97516.63;5045276;28;20032;-70
2024/02/26 01:06:03;;;;;;;6.97;1.92;;;;;;;6.20;100.00;97522.94;5045412;28;20051;-70
2024/02/26 01:08:29;;;;;;;4.22;1.60;;;;;;;6.22;100.00;97528.94;5062196;28;20036;-70
2024/02/26 01:10:54;;;;;;;7.88;1.85;;;;;;;6.21;100.00;97521.78;5060937;28;20474;-70
2024/02/26 01:13:19;;;;;;;3.13;1.40;;;;;;;6.22;100.00;97534.44;5078215;28;20404;-70
2024/02/26 01:15:45;;;;;;;2.97;1.13;;;;;;;6.23;100.00;97538.81;5044591;28;20037;-70
2024/02/26 01:18:11;;;;;;;4.03;1.50;;;;;;;6.22;100.00;97539.97;5078066;28;20032;-70
2024/02/26 01:20:36;;;;;;;5.65;1.73;;;;;;;6.21;100.00;97543.84;5061803;28;20036;-70
2024/02/26 01:23:02;;;;;;;4.20;1.67;;;;;;;6.17;100.00;97553.94;5058463;28;20025;-70
2024/02/26 01:25:27;;;;;;;5.50;1.58;;;;;;;6.21;100.00;97552.94;5077762;28;20032;-70
2024/02/26 01:27:53;;;;;;;3.65;1.60;;;;;;;6.19;100.00;97557.97;5061696;28;20039;-70
2024/02/26 01:30:19;;;;;;;5.13;1.77;;;;;;;6.19;100.00;97559.94;5079037;28;20025;-71
2024/02/26 01:32:44;;;;;;;3.97;1.55;;;;;;;6.17;100.00;97554.75;5061455;28;20084;-70
2024/02/26 01:35:11;;;;;;;4.28;1.60;;;;;;;6.20;100.00;97553.25;5061458;28;20473;-70
2024/02/26 01:37:37;;;;;;;5.70;1.50;;;;;;;6.20;100.00;97556.00;5045088;28;20024;-70
2024/02/26 01:40:06;;;;;;;4.30;1.75;;;;;;;6.19;100.00;97557.16;5059216;28;20086;-70
2024/02/26 01:42:32;;;;;;;5.63;1.80;;;;;;;6.18;100.00;97561.06;5078086;28;20535;-70
2024/02/26 01:44:58;;;;;;;2.47;1.35;;;;;;;6.21;100.00;97566.72;5060927;28;20036;-70
2024/02/26 01:47:23;;;;;;;4.45;1.55;;;;;;;6.23;100.00;97569.13;5044079;28;20498;-70
2024/02/26 01:49:49;;;;;;;4.18;1.45;;;;;;;6.20;100.00;97570.59;5041790;28;20474;-70
2024/02/26 01:52:14;;;;;;;4.10;1.45;;;;;;;6.19;100.00;97580.00;5044421;28;20036;-70
2024/02/26 01:54:40;;;;;;;3.55;1.77;;;;;;;6.20;100.00;97583.56;5043211;28;20028;-71
2024/02/26 01:57:05;;;;;;;4.43;1.70;;;;;;;6.20;100.00;97584.38;5027764;28;20046;-70
2024/02/26 01:59:31;;;;;;;5.20;1.83;;;;;;;6.23;100.00;97582.91;5060996;28;20032;-70
2024/02/26 02:01:57;;;;;;;3.00;1.70;;;;;;;6.20;100.00;97598.16;5077251;28;20028;-71
2024/02/26 02:04:23;;;;;;;4.75;1.77;;;;;;;6.22;100.00;97590.38;5042368;28;20537;-71
2024/02/26 02:06:49;;;;;;;3.45;1.70;;;;;;;6.24;100.00;97592.78;5060885;28;20033;-71
2024/02/26 02:09:14;;;;;;;5.10;1.60;;;;;;;6.22;100.00;97597.84;5060699;28;20032;-70
2024/02/26 02:11:40;;;;;;;2.88;1.30;;;;;;;6.21;100.00;97596.19;5044220;28;20031;-70
2024/02/26 02:14:06;;;;;;;6.03;1.70;;;;;;;6.19;100.00;97595.75;5060527;28;20029;-70
2024/02/26 02:16:31;;;;;;;3.17;1.50;;;;;;;6.21;100.00;97590.69;5040388;28;20018;-71
2024/02/26 02:18:58;;;;;;;3.72;1.20;;;;;;;6.23;100.00;97597.47;5043570;28;20040;-70
2024/02/26 02:21:23;;;;;;;5.13;1.65;;;;;;;6.24;100.00;97595.53;5076968;28;20048;-70
2024/02/26 02:23:49;;;;;;;3.50;1.70;;;;;;;6.24;100.00;97596.34;5073305;28;20396;-70
2024/02/26 02:26:15;;;;;;;3.97;1.80;;;;;;;6.24;100.00;97601.88;5060369;28;20157;-71
2024/02/26 02:28:41;;;;;;;4.45;1.58;;;;;;;6.23;100.00;97596.69;5060267;28;20131;-70
2024/02/26 02:31:06;;;;;;;4.30;1.45;;;;;;;6.27;100.00;97603.16;5059833;28;20563;-70
2024/02/26 02:33:32;;;;;;;4.32;1.73;;;;;;;6.24;100.00;97612.06;5047588;28;20056;-70
2024/02/26 02:35:57;;;;;;;2.45;1.65;;;;;;;6.23;100.00;97611.25;5043416;28;20029;-71
2024/02/26 02:38:25;;;;;;;3.17;1.50;;;;;;;6.23;100.00;97615.97;5048418;28;20028;-70
2024/02/26 02:40:51;;;;;;;4.13;2.03;;;;;;;6.26;100.00;97621.59;5045409;28;20104;-71
2024/02/26 02:43:17;;;;;;;3.35;1.58;;;;;;;6.23;100.00;97618.72;5076233;28;20044;-70
2024/02/26 02:45:42;;;;;;;3.22;1.70;;;;;;;6.25;100.00;97616.44;5043359;28;20048;-71
2024/02/26 02:48:07;;;;;;;3.50;1.60;;;;;;;6.27;100.00;97619.69;5042683;28;20035;-71
2024/02/26 02:50:33;;;;;;;2.22;1.50;;;;;;;6.25;100.00;97621.97;5073212;28;20029;-71
2024/02/26 02:52:58;;;;;;;2.97;1.80;;;;;;;6.25;100.00;97622.75;5075861;28;20085;-70
2024/02/26 02:55:24;;;;;;;2.95;1.60;;;;;;;6.30;100.00;97621.75;5055834;28;20025;-71
2024/02/26 02:57:50;;;;;;;4.90;1.60;;;;;;;6.28;100.00;97626.78;5041213;28;20067;-71
2024/02/26 03:00:15;;;;;;;4.05;1.50;;;;;;;6.24;100.00;97626.66;5076504;28;20029;-70
2024/02/26 03:02:42;;;;;;;5.07;1.60;;;;;;;6.28;100.00;97632.31;5053167;28;20021;-70
2024/02/26 03:05:08;;;;;;;4.95;1.90;;;;;;;6.29;100.00;97633.91;5076062;28;20029;-71
2024/02/26 03:07:33;;;;;;;5.03;1.85;;;;;;;6.30;100.00;97641.06;5041788;28;20040;-71
2024/02/26 03:09:59;;;;;;;2.70;1.70;;;;;;;6.31;100.00;97636.34;5076265;28;20032;-70
2024/02/26 03:12:25;;;;;;;3.15;2.10;;;;;;;6.32;100.00;97643.47;5041679;28;20029;-71
2024/02/26 03:14:51;;;;;;;4.57;1.73;;;;;;;6.29;100.00;97646.91;5076216;28;20035;-71
2024/02/26 03:17:16;;;;;;;3.58;1.98;;;;;;;6.31;100.00;97641.84;5044616;28;20028;-70
2024/02/26 03:19:46;;;;;;;3.08;1.95;;;;;;;6.32;100.00;97649.78;5072213;28;20043;-70
2024/02/26 03:22:11;;;;;;;4.32;2.45;;;;;;;6.33;100.00;97650.59;5073231;28;20021;-70
2024/02/26 03:24:37;;;;;;;5.50;2.50;;;;;;;6.32;100.00;97649.78;5059457;28;20029;-70
2024/02/26 03:27:02;;;;;;;4.05;2.28;;;;;;;6.33;100.00;97659.69;5056463;28;20036;-70
2024/02/26 03:29:28;;;;;;;4.70;2.28;;;;;;;6.33;100.00;97656.91;5042583;28;20024;-70
2024/02/26 03:31:53;;;;;;;3.50;2.30;;;;;;;6.33;100.00;97656.91;5056515;28;20033;-71
2024/02/26 03:34:19;;;;;;;3.75;2.25;;;;;;;6.33;100.00;97667.94;5059237;28;20044;-70
2024/02/26 03:36:45;;;;;;;4.35;2.47;;;;;;;6.31;100.00;97672.97;5077050;28;20032;-71
2024/02/26 03:39:11;;;;;;;5.45;2.67;;;;;;;6.35;100.00;97671.19;5074240;28;20134;-71
2024/02/26 03:41:36;;;;;;;5.07;2.22;;;;;;;6.33;100.00;97678.97;5049578;28;20051;-70
2024/02/26 03:44:02;;;;;;;6.22;2.83;;;;;;;6.36;100.00;97672.78;5058720;28;20107;-71
2024/02/26 03:46:27;;;;;;;6.13;3.00;;;;;;;6.36;100.00;97681.06;5056362;28;20105;-71
2024/02/26 03:48:53;;;;;;;7.93;4.03;;;;;;;6.40;100.00;97678.44;5058484;28;20031;-70
2024/02/26 03:51:18;;;;;;;6.20;3.30;;;;;;;6.41;100.00;97682.81;5039838;28;20025;-70
2024/02/26 03:53:44;;;;;;;7.20;3.05;;;;;;;6.41;100.00;97688.34;5058874;28;20473;-70
2024/02/26 03:56:11;;;;;;;7.65;3.58;;;;;;;6.43;100.00;97699.81;5039860;28;20044;-70
2024/02/26 03:58:36;;;;;;;12.43;6.53;;;;;;;6.44;100.00;97696.72;5058831;28;20036;-70
2024/02/26 04:01:02;;;;;;;12.63;4.70;;;;;;;6.43;100.00;97706.13;5075476;28;20035;-70
2024/02/26 04:03:27;;;;;;;9.45;5.30;;;;;;;6.44;100.00;97701.44;5058753;28;20107;-70
2024/02/26 04:05:53;;;;;;;13.15;5.97;;;;;;;6.46;100.00;97708.25;5075573;28;20078;-70
2024/02/26 04:08:18;;;;;;;13.18;5.32;;;;;;;6.44;100.00;97706.97;5058606;28;20028;-70
2024/02/26 04:10:44;;;;;;;7.35;4.68;;;;;;;6.46;100.00;97710.16;5058433;28;20024;-70
2024/02/26 04:13:09;;;;;;;8.45;4.30;;;;;;;6.48;100.00;97711.44;5042071;28;20618;-71
2024/02/26 04:15:35;;;;;;;5.82;4.40;;;;;;;6.49;100.00;97720.50;5058433;28;20040;-70
2024/02/26 04:18:00;;;;;;;12.43;5.28;;;;;;;6.50;100.00;97727.66;5076628;28;20508;-71
2024/02/26 04:20:26;;;;;;;11.25;5.28;;;;;;;6.51;100.00;97731.22;5062421;28;20600;-70
2024/02/26 04:22:51;;;;;;;11.60;4.82;;;;;;;6.49;100.00;97726.03;5058988;28;20029;-70
2024/02/26 04:25:16;;;;;;;13.55;6.13;;;;;;;6.49;100.00;97729.63;5056829;28;20029;-70
2024/02/26 04:27:42;;;;;;;10.70;6.82;;;;;;;6.51;100.00;97737.53;5045365;28;20020;-70
2024/02/26 04:30:08;;;;;;;10.35;6.03;;;;;;;6.51;100.00;97745.00;5045956;28;20082;-70
2024/02/26 04:32:34;;;;;;;12.55;6.43;;;;;;;6.52;100.00;97746.63;5062580;28;20097;-70
2024/02/26 04:35:00;;;;;;;13.60;6.10;;;;;;;6.54;100.00;97747.09;5062282;28;20039;-71
2024/02/26 04:37:30;;;;;;;14.52;6.50;;;;;;;6.55;100.00;97759.75;5062402;28;20021;-70
2024/02/26 04:39:58;;;;;;;13.10;5.93;;;;;;;6.56;100.00;97758.59;5078840;28;20400;-71
2024/02/26 04:42:23;;;;;;;10.65;5.50;;;;;;;6.55;100.00;97770.78;5045686;28;20116;-70
2024/02/26 04:44:48;;;;;;;9.48;4.70;;;;;;;6.58;100.00;97773.69;5078733;28;20036;-71
2024/02/26 04:47:14;;;;;;;7.93;4.40;;;;;;;6.58;100.00;97778.38;5078489;28;20052;-71
2024/02/26 04:49:39;;;;;;;6.03;4.07;;;;;;;6.61;100.00;97786.00;5078259;28;20028;-70
2024/02/26 04:52:05;;;;;;;6.82;3.33;;;;;;;6.60;100.00;97785.19;5078958;28;20534;-71
2024/02/26 04:54:30;;;;;;;7.05;3.40;;;;;;;6.60;100.00;97787.13;5059644;28;20064;-70
2024/02/26 04:56:56;;;;;;;8.05;4.07;;;;;;;6.60;100.00;97787.13;5075457;28;20439;-70
2024/02/26 04:59:21;;;;;;;9.65;4.03;;;;;;;6.64;100.00;97799.09;5061890;28;20038;-70
2024/02/26 05:01:47;;;;;;;5.82;3.53;;;;;;;6.64;100.00;97799.91;5061790;28;20028;-70
2024/02/26 05:04:12;;;;;;;6.97;4.00;;;;;;;6.68;100.00;97805.56;5053887;28;20508;-70
2024/02/26 05:06:38;;;;;;;6.25;3.72;;;;;;;6.68;100.00;97802.81;5028981;28;20024;-70
2024/02/26 05:09:04;;;;;;;7.00;3.63;;;;;;;6.67;100.00;97818.53;5042876;28;20028;-70
2024/02/26 05:11:29;;;;;;;8.15;4.15;;;;;;;6.69;100.00;97823.75;5044699;28;20082;-70
2024/02/26 05:13:54;;;;;;;5.90;4.50;;;;;;;6.71;100.00;97824.19;5044859;28;20017;-70
2024/02/26 05:16:24;;;;;;;7.18;4.60;;;;;;;6.71;100.00;97833.31;5061929;28;20447;-71
2024/02/26 05:18:49;;;;;;;7.78;4.35;;;;;;;6.70;100.00;97836.38;5057538;28;20083;-71
2024/02/26 05:21:15;;;;;;;6.38;3.78;;;;;;;6.71;100.00;97840.75;5064156;28;20033;-70
2024/02/26 05:23:43;;;;;;;8.85;4.45;;;;;;;6.71;100.00;97840.75;5044153;28;20032;-71
2024/02/26 05:26:09;;;;;;;6.57;4.45;;;;;;;6.73;100.00;97855.03;5078186;28;20029;-70
2024/02/26 05:28:34;;;;;;;7.32;4.80;;;;;;;6.74;100.00;97864.09;5078138;28;20063;-71
2024/02/26 05:31:00;;;;;;;7.32;4.20;;;;;;;6.77;100.00;97871.69;5060704;28;20086;-71
2024/02/26 05:33:25;;;;;;;6.22;3.88;;;;;;;6.74;100.00;97873.16;5079336;28;20032;-71
2024/02/26 05:35:51;;;;;;;5.35;4.15;;;;;;;6.76;100.00;97873.66;5077998;28;20032;-70
2024/02/26 05:38:16;;;;;;;7.25;4.47;;;;;;;6.82;100.00;97888.06;5059496;28;20486;-71
2024/02/26 05:40:42;;;;;;;5.30;3.80;;;;;;;6.81;100.00;97886.47;5057693;28;20041;-71
2024/02/26 05:43:07;;;;;;;7.72;5.15;;;;;;;6.81;100.00;97898.28;5109303;28;20401;-71
2024/02/26 05:45:32;;;;;;;9.05;5.28;;;;;;;6.84;100.00;97899.59;5061081;28;20052;-71
2024/02/26 05:47:58;;;;;;;7.18;4.53;;;;;;;6.83;100.00;97909.81;5060442;28;20443;-71
2024/02/26 05:50:24;;;;;;;8.18;5.18;;;;;;;6.82;100.00;97916.47;5060949;28;20111;-71
2024/02/26 05:52:49;;;;;;;6.57;4.47;;;;;;;6.83;100.00;97934.66;5078644;28;20068;-71
2024/02/26 05:55:15;;;;;;;4.50;3.40;;;;;;;6.83;100.00;97929.13;5028116;28;20029;-71
2024/02/26 05:57:40;;;;;;;4.57;3.25;;;;;;;6.81;100.00;97941.63;5041183;28;20028;-70
2024/02/26 06:00:06;;;;;;;3.63;2.80;;;;;;;6.81;100.00;97944.38;5077570;28;20107;-71
2024/02/26 06:02:32;;;;;;;4.03;2.50;;;;;;;6.85;100.00;97959.97;5060768;28;20068;-71
2024/02/26 06:04:57;;;;;;;2.88;2.45;;;;;;;6.83;100.00;97955.91;5077546;28;20029;-71
2024/02/26 06:07:23;;;;;;;3.20;2.40;;;;;;;6.83;100.00;97961.44;5077358;28;20089;-70
2024/02/26 06:09:48;;;;;;;2.72;2.40;;;;;;;6.79;100.00;97972.28;5044679;28;20036;-71
2024/02/26 06:12:14;;;;;;;3.60;2.47;;;;;;;6.76;100.00;97974.91;5076416;28;20040;-71
2024/02/26 06:14:39;;;;;;;3.45;2.10;;;;;;;6.76;100.00;97983.19;5060535;28;20476;-70
2024/02/26 06:17:05;;;;;;;3.80;2.35;;;;;;;6.74;100.00;97986.25;5093681;28;20030;-71
2024/02/26 06:19:30;;;;;;;3.67;2.40;;;;;;;6.71;100.00;97995.22;5078590;28;20036;-70
2024/02/26 06:21:56;;;;;;;3.20;2.47;;;;;;;6.65;100.00;97996.53;5062949;28;20029;-70
2024/02/26 06:24:22;;;;;;;4.03;2.17;;;;;;;6.65;100.00;98010.31;5078490;28;20073;-70
2024/02/26 06:26:47;;;;;;;3.15;2.50;;;;;;;6.62;100.00;98030.28;5076917;28;20488;-71
2024/02/26 06:29:13;;;;;;;4.00;2.10;;;;;;;6.61;100.00;98031.44;5076904;28;20021;-70
2024/02/26 06:31:39;;;;;;;3.42;1.95;;;;;;;6.57;100.00;98030.44;5055827;28;20135;-71
2024/02/26 06:34:04;;;;;;;3.13;2.28;;;;;;;6.58;100.00;98029.34;5076913;28;20037;-70
2024/02/26 06:36:31;;;;;;;5.40;2.30;;;;;;;6.56;100.00;98040.69;5060374;28;20465;-71
2024/02/26 06:38:57;;;;;;;2.30;2.00;;;;;;;6.55;100.00;98055.63;5038459;28;20510;-70
2024/02/26 06:41:27;;;;;;;3.60;2.35;;;;;;;6.51;100.00;98053.84;5036865;28;20025;-71
2024/02/26 06:43:55;;;;;;;2.35;2.10;;;;;;;6.55;100.00;98060.31;5076764;28;20122;-70
2024/02/26 06:46:21;;;;;;;4.38;2.53;;;;;;;6.51;100.00;98073.13;5060224;28;20059;-71
2024/02/26 06:48:48;;;;;;;4.25;2.33;;;;;;;6.52;100.00;98077.50;5059580;28;20040;-70
2024/02/26 06:51:13;;;;;;;2.75;2.13;;;;;;;6.47;100.00;98087.56;5059638;28;20031;-70
2024/02/26 06:53:39;;;;;;;2.97;1.80;;;;;;;6.48;100.00;98091.13;5042873;28;20037;-71
2024/02/26 06:56:05;;;;;;;2.70;2.03;;;;;;;6.49;100.00;98101.84;5073567;28;20029;-70
2024/02/26 06:58:30;;;;;;;2.20;1.80;;;;;;;6.46;100.00;98113.53;5060142;28;20112;-70
2024/02/26 07:00:56;;;;;;;2.80;2.10;;;;;;;6.44;100.00;98121.31;5059658;28;20067;-71
2024/02/26 07:03:22;;;;;;;3.42;1.92;;;;;;;6.41;100.00;98132.19;5059222;28;20032;-71
2024/02/26 07:05:48;;;;;;;3.47;1.95;;;;;;;6.41;100.00;98137.72;5077178;28;20071;-71
2024/02/26 07:08:13;;;;;;;3.58;2.08;;;;;;;6.47;100.00;98142.72;5059764;28;20100;-70
2024/02/26 07:10:39;;;;;;;2.55;1.90;;;;;;;6.41;100.00;98149.53;5076184;28;20028;-70
2024/02/26 07:13:04;;;;;;;4.60;1.98;;;;;;;6.42;100.00;98156.66;5076317;28;20024;-71
2024/02/26 07:15:30;;;;;;;3.20;2.20;;;;;;;6.47;100.00;98159.28;5042611;28;20028;-70
2024/02/26 07:17:56;;;;;;;2.67;2.00;;;;;;;6.46;100.00;98168.69;5075642;28;20094;-71
2024/02/26 07:20:21;;;;;;;2.70;1.92;;;;;;;6.44;100.00;98181.97;5070648;28;20082;-70
2024/02/26 07:22:47;;;;;;;4.10;1.92;;;;;;;6.44;100.00;98187.50;5022884;28;20037;-70
2024/02/26 07:25:16;;;;;;;1.75;1.48;;;;;;;6.41;100.00;98201.94;5072900;28;20029;-70
2024/02/26 07:27:41;;;;;;;1.73;1.40;;;;;;;6.44;100.00;98211.50;5059804;28;20506;-71
2024/02/26 07:30:08;;;;;;;1.48;1.27;;;;;;;6.43;100.00;98216.19;5038912;28;20037;-70
2024/02/26 07:32:33;;;;;;;3.42;1.33;;;;;;;6.44;100.00;98226.09;5075227;28;20088;-70
2024/02/26 07:34:59;;;;;;;2.33;1.20;;;;;;;6.42;100.00;98236.63;5077222;28;20032;-70
2024/02/26 07:37:24;;;;;;;2.45;0.98;;;;;;;6.42;100.00;98238.56;5059238;28;20032;-71
2024/02/26 07:39:50;;;;;;;1.42;0.95;;;;;;;6.40;100.00;98247.16;5059052;28;20028;-70
2024/02/26 07:42:15;;;;;;;1.08;0.70;;;;;;;6.39;100.00;98255.75;5058799;28;20028;-70
2024/02/26 07:44:42;;;;;;;2.92;0.80;;;;;;;6.39;100.00;98267.59;5075531;28;20469;-71
2024/02/26 07:47:09;;;;;;;1.83;0.73;;;;;;;6.37;100.00;98275.38;5058954;28;20063;-71
2024/02/26 07:49:34;;;;;;;2.97;0.68;;;;;;;6.36;100.00;98284.78;5075427;28;20021;-70
2024/02/26 07:52:00;;;;;;;2.30;0.70;;;;;;;6.39;100.00;98295.16;5075149;28;20024;-70
2024/02/26 07:54:25;;;;;;;3.58;0.73;;;;;;;6.34;100.00;98314.59;5048993;28;20029;-71
2024/02/26 07:56:51;;;;;;;2.22;0.80;;;;;;;6.34;100.00;98319.31;5064285;28;20039;-71
2024/02/26 07:59:16;;;;;;;1.10;0.85;;;;;;;6.35;100.00;98329.19;5055139;28;20036;-70
2024/02/26 08:01:43;;;;;;;2.22;0.70;;;;;;;6.29;100.00;98336.81;5058936;28;20047;-70
2024/02/26 08:04:08;;;;;;;2.17;0.80;;;;;;;6.31;100.00;98342.81;5059300;28;20082;-69
2024/02/26 08:06:34;;;;;;;1.20;0.82;;;;;;;6.28;100.00;98359.19;5025582;28;20028;-80
2024/02/26 08:08:59;;;;;;;4.25;0.80;;;;;;;6.24;100.00;98345.22;5041729;28;20028;-70
2024/02/26 08:11:25;;;;;;;5.53;1.15;;;;;;;6.23;100.00;98373.91;5076890;28;20036;-69
2024/02/26 08:13:50;;;;;;;3.15;1.00;;;;;;;6.24;100.00;98381.03;5076522;28;20024;-70
2024/02/26 08:16:16;;;;;;;2.88;0.93;;;;;;;6.22;100.00;98384.13;5046175;28;20029;-70
2024/02/26 08:18:41;;;;;;;2.38;1.00;;;;;;;6.18;100.00;98390.59;5062968;28;20043;-70
2024/02/26 08:21:08;;;;;;;1.98;0.70;;;;;;;6.16;100.00;98407.47;5048550;28;20370;-69
2024/02/26 08:23:33;;;;;;;4.22;1.05;;;;;;;6.24;100.00;98405.84;5072554;28;20393;-69
2024/02/26 08:25:59;;;;;;;6.38;1.20;;;;;;;6.17;100.00;98413.78;5075284;28;20028;-69
2024/02/26 08:28:24;;;;;;;2.22;1.00;;;;;;;6.15;100.00;98421.53;5058699;28;20033;-69
2024/02/26 08:30:50;;;;;;;1.80;1.00;;;;;;;6.19;100.00;98433.56;5071883;28;20025;-70
2024/02/26 08:33:17;;;;;;;2.08;0.88;;;;;;;6.17;100.00;98441.34;5041407;28;20036;-69
2024/02/26 08:35:43;;;;;;;4.60;1.00;;;;;;;6.16;100.00;98435.03;5076305;28;20039;-70
2024/02/26 08:38:08;;;;;;;3.88;1.27;;;;;;;6.14;100.00;98444.72;5057282;28;20024;-70
2024/02/26 08:40:34;;;;;;;2.83;1.25;;;;;;;6.14;100.00;98464.84;5058370;28;20025;-70
2024/02/26 08:42:59;;;;;;;3.50;1.05;;;;;;;6.16;100.00;98461.78;5075079;28;20070;-70
2024/02/26 08:45:27;;;;;;;3.00;0.88;;;;;;;6.17;100.00;98457.88;5074266;28;20519;-70
2024/02/26 08:47:52;;;;;;;5.45;1.10;;;;;;;6.14;100.00;98473.09;5058082;28;20040;-69
2024/02/26 08:50:18;;;;;;;2.85;0.90;;;;;;;6.15;100.00;98482.19;5050744;28;20024;-70
2024/02/26 08:52:43;;;;;;;2.70;0.63;;;;;;;6.11;100.00;98486.69;5041890;28;20031;-70
2024/02/26 08:55:09;;;;;;;2.80;0.77;;;;;;;6.10;100.00;98498.84;5058112;28;20035;-70
2024/02/26 08:57:34;;;;;;;2.05;0.65;;;;;;;6.07;100.00;98492.00;5074229;28;20040;-69
2024/02/26 09:00:01;;;;;;;3.95;0.70;;;;;;;6.09;100.00;98519.25;5057938;28;20035;-69
2024/02/26 09:02:26;;;;;;;3.13;0.85;;;;;;;6.08;100.00;98525.91;5054780;28;20033;-69
2024/02/26 09:04:54;;;;;;;2.45;0.80;;;;;;;6.06;100.00;98534.47;5060641;28;20116;-69
2024/02/26 09:07:20;;;;;;;2.83;0.90;;;;;;;6.09;100.00;98538.56;5078288;28;20043;-69
2024/02/26 09:09:45;;;;;;;2.33;0.90;;;;;;;6.04;100.00;98547.75;5061728;28;20028;-69
2024/02/26 09:12:11;;;;;;;1.90;0.90;;;;;;;6.03;100.00;98546.94;5078316;28;20040;-69
2024/02/26 09:14:37;;;;;;;3.65;1.13;;;;;;;6.04;100.00;98581.66;5045084;28;20040;-69
2024/02/26 09:17:02;;;;;;;1.50;0.68;;;;;;;6.07;100.00;98562.84;5079595;28;20044;-69
2024/02/26 09:19:28;;;;;;;2.60;0.95;;;;;;;6.06;100.00;98577.75;5095319;28;20532;-69
2024/02/26 09:21:57;;;;;;;5.05;1.55;;;;;;;6.04;100.00;98570.63;5075704;28;20072;-69
2024/02/26 09:24:23;;;;;;;4.30;1.27;;;;;;;6.06;100.00;98588.78;5079310;28;20439;-69
2024/02/26 09:26:48;;;;;;;3.88;0.98;;;;;;;6.11;100.00;98586.72;5061588;28;20035;-69
2024/02/26 09:29:14;;;;;;;4.68;1.40;;;;;;;6.08;100.00;98592.06;5065961;28;20029;-69
2024/02/26 09:31:41;;;;;;;5.30;1.30;;;;;;;6.09;100.00;98593.69;5041412;28;20503;-69
2024/02/26 09:34:07;;;;;;;3.80;1.45;;;;;;;6.08;100.00;98614.09;5072430;28;20033;-69
2024/02/26 09:36:33;;;;;;;3.50;1.50;;;;;;;6.03;100.00;98620.53;5058105;28;20140;-69
2024/02/26 09:38:59;;;;;;;3.75;1.30;;;;;;;6.09;100.00;98624.81;5077142;28;20063;-69
2024/02/26 09:41:24;;;;;;;3.58;1.10;;;;;;;6.04;100.00;98625.75;5061332;28;20028;-69
2024/02/26 09:43:50;;;;;;;3.50;1.00;;;;;;;6.06;100.00;98641.16;5061655;28;20031;-69
2024/02/26 09:46:17;;;;;;;3.35;1.20;;;;;;;6.07;100.00;98646.34;5060601;28;20049;-69
2024/02/26 09:48:44;;;;;;;4.47;1.38;;;;;;;6.10;100.00;98654.00;5077350;28;20037;-69
2024/02/26 09:51:10;;;;;;;4.55;0.80;;;;;;;6.10;100.00;98661.44;5057520;28;20040;-69
2024/02/26 09:53:39;;;;;;;2.97;0.88;;;;;;;6.07;100.00;98670.31;5052356;28;20032;-69
2024/02/26 09:56:06;;;;;;;6.90;1.33;;;;;;;6.08;100.00;98664.53;5042190;28;20029;-69
2024/02/26 09:58:32;;;;;;;5.00;0.82;;;;;;;6.13;100.00;98680.09;5061139;28;20028;-69
2024/02/26 10:01:00;;;;;;;2.53;0.93;;;;;;;6.16;100.00;98676.75;5077543;28;20070;-69
2024/02/26 10:03:28;;;;;;;1.60;0.70;;;;;;;6.12;100.00;98692.28;5065177;28;20407;-69
2024/02/26 10:05:55;;;;;;;3.38;1.15;;;;;;;6.22;100.00;98692.06;5061202;28;20173;-69
2024/02/26 10:08:22;;;;;;;3.97;1.20;;;;;;;6.19;100.00;98704.50;5028190;28;20032;-69
2024/02/26 10:10:47;;;;;;;4.00;1.42;;;;;;;6.17;100.00;98709.50;5060686;28;20166;-69
2024/02/26 10:13:13;;;;;;;5.43;1.05;;;;;;;6.23;100.00;98716.53;5043876;28;20032;-69
2024/02/26 10:15:38;;;;;;;4.78;0.98;;;;;;;6.26;100.00;98732.47;5059541;28;20025;-69
2024/02/26 10:18:07;;;;;;;3.60;0.75;;;;;;;6.25;100.00;98741.06;5075350;28;20033;-69
2024/02/26 10:20:33;;;;;;;2.33;0.60;;;;;;;6.35;100.00;98745.53;5077085;28;20099;-69
2024/02/26 10:23:00;;;;;;;3.30;0.60;;;;;;;6.34;100.00;98739.19;5040369;28;20060;-69
2024/02/26 10:25:25;;;;;;;4.72;0.85;;;;;;;6.42;100.00;98745.94;5056322;28;20036;-69
2024/02/26 10:27:51;;;;;;;3.28;0.70;;;;;;;6.41;100.00;98758.09;5060418;28;20047;-69
2024/02/26 10:30:18;;;;;;;3.90;1.30;;;;;;;6.48;100.00;98762.03;5072006;28;20021;-70
2024/02/26 10:32:45;;;;;;;3.40;1.40;;;;;;;6.49;100.00;98769.22;5060435;28;20044;-69
2024/02/26 10:35:11;;;;;;;3.15;0.85;;;;;;;6.55;100.00;98788.41;5055596;28;20504;-69
2024/02/26 10:37:36;;;;;;;4.43;1.00;;;;;;;6.56;100.00;98779.00;5076742;28;20032;-69
2024/02/26 10:40:03;;;;;;;3.47;0.98;;;;;;;6.59;100.00;98795.72;5059943;28;20043;-69
2024/02/26 10:42:28;;;;;;;4.30;0.93;;;;;;;6.61;100.00;98800.94;5060215;28;20058;-69
2024/02/26 10:44:54;;;;;;;3.33;0.80;;;;;;;6.64;100.00;98808.59;5077891;28;20033;-69
2024/02/26 10:47:19;;;;;;;3.75;0.80;;;;;;;6.65;100.00;98810.22;5059583;28;20048;-69
2024/02/26 10:49:47;;;;;;;1.48;0.60;;;;;;;6.69;100.00;98822.28;5042909;28;20154;-69
2024/02/26 10:52:13;;;;;;;6.15;0.80;;;;;;;6.68;100.00;98831.69;5076562;28;20031;-69
2024/02/26 10:54:38;;;;;;;2.53;0.77;;;;;;;6.67;100.00;98846.59;5056906;28;20477;-69
2024/02/26 10:57:04;;;;;;;7.68;0.70;;;;;;;6.63;100.00;98840.91;5057125;28;20032;-69
2024/02/26 10:59:29;;;;;;;3.25;0.70;;;;;;;6.65;100.00;98844.16;5047877;28;20050;-69
2024/02/26 11:01:55;;;;;;;3.20;0.90;;;;;;;6.67;100.00;98846.59;5042656;28;20029;-69
2024/02/26 11:04:20;;;;;;;3.88;0.80;;;;;;;6.67;100.00;98858.44;5058414;28;20025;-69
2024/02/26 11:06:46;;;;;;;3.47;1.13;;;;;;;6.70;100.00;98857.03;5059737;28;20036;-69
2024/02/26 11:09:15;;;;;;;5.30;1.10;;;;;;;6.69;100.00;98875.53;5059540;28;20028;-69
2024/02/26 11:11:40;;;;;;;5.35;1.00;;;;;;;6.67;100.00;98880.53;5060115;28;20477;-69
2024/02/26 11:14:06;;;;;;;4.00;0.70;;;;;;;6.73;100.00;98884.00;5075939;28;20040;-69
2024/02/26 11:16:32;;;;;;;5.18;1.02;;;;;;;6.65;100.00;98891.03;5045488;28;20111;-69
2024/02/26 11:18:57;;;;;;;5.97;1.00;;;;;;;6.60;100.00;98891.16;5059100;28;20032;-69
2024/02/26 11:21:28;;;;;;;6.03;0.90;;;;;;;6.59;100.00;98894.22;5046751;28;20029;-69
2024/02/26 11:23:54;;;;;;;5.72;1.38;;;;;;;6.57;100.00;98893.69;5057323;28;20369;-69
2024/02/26 11:26:19;;;;;;;7.80;1.10;;;;;;;6.55;100.00;98907.00;5059203;28;20073;-69